createdAt,value
2022-07-29T00:02:18.083Z,38.60
2022-07-29T00:05:06.910Z,38.60
2022-07-29T00:07:55.544Z,38.70
2022-07-29T00:10:43.026Z,38.80
2022-07-29T00:13:32.456Z,39.00
2022-07-29T00:16:20.345Z,39.10
2022-07-29T00:19:07.925Z,39.40
2022-07-29T00:21:54.991Z,39.30
2022-07-29T00:24:43.434Z,39.40
2022-07-29T00:27:30.533Z,39.70
2022-07-29T00:30:18.125Z,39.80
2022-07-29T00:33:09.007Z,39.70
2022-07-29T00:35:56.821Z,39.40
2022-07-29T00:38:46.274Z,39.50
2022-07-29T00:41:35.075Z,39.70
2022-07-29T00:44:22.241Z,39.70
2022-07-29T00:47:10.085Z,39.70
2022-07-29T00:49:57.207Z,39.70
2022-07-29T00:52:45.449Z,39.80
2022-07-29T00:55:33.228Z,39.80
2022-07-29T00:58:21.797Z,39.70
2022-07-29T01:01:09.172Z,39.70
2022-07-29T01:03:56.538Z,39.80
2022-07-29T01:06:45.194Z,39.90
2022-07-29T01:09:45.419Z,40.00
2022-07-29T01:12:36.747Z,40.10
2022-07-29T01:15:26.273Z,40.20
2022-07-29T01:18:22.203Z,40.20
2022-07-29T01:21:35.827Z,40.00
2022-07-29T01:24:44.632Z,39.80
2022-07-29T01:27:49.901Z,39.70
2022-07-29T01:30:40.580Z,39.60
2022-07-29T01:33:49.396Z,39.70
2022-07-29T01:36:49.578Z,39.70
2022-07-29T01:39:39.721Z,39.70
2022-07-29T01:42:34.848Z,39.80
2022-07-29T01:45:29.202Z,40.00
2022-07-29T01:48:23.851Z,40.20
2022-07-29T01:51:17.372Z,40.50
2022-07-29T01:54:11.121Z,40.40
2022-07-29T01:57:00.996Z,40.40
2022-07-29T01:59:50.905Z,40.30
2022-07-29T02:02:40.260Z,40.30
2022-07-29T02:05:31.207Z,40.40
2022-07-29T02:08:20.824Z,40.40
2022-07-29T02:11:09.835Z,40.40
2022-07-29T02:14:00.358Z,40.40
2022-07-29T02:16:49.823Z,40.40
2022-07-29T02:19:39.699Z,40.30
2022-07-29T02:22:31.835Z,40.40
2022-07-29T02:25:19.742Z,40.50
2022-07-29T02:28:08.672Z,40.40
2022-07-29T02:30:59.892Z,40.40
2022-07-29T02:33:49.483Z,40.60
2022-07-29T02:36:37.709Z,40.60
2022-07-29T02:39:28.191Z,40.70
2022-07-29T02:42:18.962Z,40.80
2022-07-29T02:45:07.550Z,40.60
2022-07-29T02:47:57.864Z,40.50
2022-07-29T02:50:52.164Z,40.60
2022-07-29T02:53:41.027Z,40.70
2022-07-29T02:56:35.962Z,40.40
2022-07-29T02:59:28.181Z,40.60
2022-07-29T03:02:17.526Z,40.70
2022-07-29T03:05:07.547Z,40.90
2022-07-29T03:08:00.150Z,41.00
2022-07-29T03:10:48.774Z,40.90
2022-07-29T03:13:38.139Z,40.90
2022-07-29T03:16:26.195Z,40.90
2022-07-29T03:19:13.305Z,40.80
2022-07-29T03:22:00.857Z,40.80
2022-07-29T03:24:48.265Z,40.80
2022-07-29T03:27:36.591Z,41.10
2022-07-29T03:30:26.395Z,41.00
2022-07-29T03:33:14.657Z,41.20
2022-07-29T03:36:03.396Z,41.20
2022-07-29T03:38:51.827Z,41.30
2022-07-29T03:41:42.676Z,41.20
2022-07-29T03:44:31.146Z,41.10
2022-07-29T03:47:27.052Z,41.20
2022-07-29T03:50:36.156Z,41.20
2022-07-29T03:53:23.462Z,41.20
2022-07-29T03:56:12.856Z,41.10
2022-07-29T03:59:01.422Z,41.00
2022-07-29T04:01:49.735Z,41.00
2022-07-29T04:04:38.875Z,41.10
2022-07-29T04:07:25.929Z,41.00
2022-07-29T04:10:13.372Z,41.00
2022-07-29T04:13:01.181Z,40.80
2022-07-29T04:15:48.719Z,41.00
2022-07-29T04:18:36.508Z,41.00
2022-07-29T04:21:25.868Z,41.10
2022-07-29T04:24:14.226Z,41.30
2022-07-29T04:27:01.546Z,41.30
2022-07-29T04:29:56.035Z,41.40
2022-07-29T04:32:46.185Z,41.50
2022-07-29T04:35:38.188Z,41.40
2022-07-29T04:38:27.418Z,41.50
2022-07-29T04:41:14.662Z,41.70
2022-07-29T04:44:08.797Z,41.60
2022-07-29T04:46:55.774Z,41.70
2022-07-29T04:49:42.968Z,41.80
2022-07-29T04:52:30.373Z,41.80
2022-07-29T04:55:19.227Z,41.90
2022-07-29T04:58:06.258Z,42.10
2022-07-29T05:00:53.554Z,42.00
2022-07-29T05:03:40.671Z,42.00
2022-07-29T05:06:28.102Z,42.00
2022-07-29T05:09:15.501Z,42.00
2022-07-29T05:12:04.266Z,42.20
2022-07-29T05:14:51.490Z,42.30
2022-07-29T05:17:38.529Z,42.20
2022-07-29T05:20:29.164Z,42.10
2022-07-29T05:23:16.723Z,42.10
2022-07-29T05:26:03.993Z,42.20
2022-07-29T05:28:52.470Z,42.40
2022-07-29T05:31:39.990Z,42.50
2022-07-29T05:34:27.498Z,42.50
2022-07-29T05:37:14.933Z,42.60
2022-07-29T05:40:02.204Z,42.70
2022-07-29T05:42:49.758Z,42.60
2022-07-29T05:45:49.304Z,42.30
2022-07-29T05:48:37.601Z,42.00
2022-07-29T05:51:24.856Z,41.90
2022-07-29T05:54:12.381Z,41.80
2022-07-29T05:56:59.497Z,41.80
2022-07-29T05:59:46.791Z,41.80
2022-07-29T06:02:35.408Z,41.70
2022-07-29T06:05:22.812Z,41.60
2022-07-29T06:08:10.043Z,41.60
2022-07-29T06:10:57.208Z,41.60
2022-07-29T06:13:44.620Z,41.60
2022-07-29T06:16:31.809Z,41.50
2022-07-29T06:19:20.656Z,41.70
2022-07-29T06:22:08.181Z,41.80
2022-07-29T06:24:55.358Z,41.80
2022-07-29T06:27:42.537Z,41.80
2022-07-29T06:30:30.740Z,41.90
2022-07-29T06:33:21.254Z,41.90
2022-07-29T06:36:10.984Z,41.90
2022-07-29T06:38:59.460Z,41.90
2022-07-29T06:41:50.640Z,41.90
2022-07-29T06:44:37.789Z,42.00
2022-07-29T06:47:24.859Z,42.00
2022-07-29T06:50:13.419Z,42.00
2022-07-29T06:53:02.076Z,42.10
2022-07-29T06:55:49.132Z,42.20
2022-07-29T06:58:37.209Z,42.50
2022-07-29T07:01:24.642Z,42.50
2022-07-29T07:04:12.510Z,42.70
2022-07-29T07:07:00.574Z,42.70
2022-07-29T07:13:36.834Z,42.80
2022-07-29T07:16:24.125Z,42.80
2022-07-29T07:19:11.300Z,42.90
2022-07-29T07:22:01.649Z,43.00
2022-07-29T07:24:51.461Z,43.10
2022-07-29T07:27:39.999Z,43.10
2022-07-29T07:30:28.245Z,43.30
2022-07-29T07:33:15.843Z,43.40
2022-07-29T07:36:03.096Z,43.40
2022-07-29T07:38:50.359Z,43.40
2022-07-29T07:41:37.749Z,43.60
2022-07-29T07:44:26.610Z,43.70
2022-07-29T07:47:14.285Z,43.80
2022-07-29T07:50:02.683Z,44.00
2022-07-29T07:52:52.342Z,44.00
2022-07-29T07:58:50.197Z,44.30
2022-07-29T08:01:55.028Z,45.30
2022-07-29T08:04:43.761Z,44.80
2022-07-29T08:07:31.373Z,45.10
2022-07-29T08:10:41.984Z,45.00
2022-07-29T08:13:31.251Z,45.20
2022-07-29T08:16:18.330Z,45.20
2022-07-29T08:19:06.840Z,45.40
2022-07-29T08:21:54.965Z,45.80
2022-07-29T08:24:45.199Z,45.40
2022-07-29T08:27:43.397Z,45.60
2022-07-29T08:30:31.464Z,45.60
2022-07-29T08:33:19.109Z,45.60
2022-07-29T08:36:08.690Z,45.80
2022-07-29T08:38:56.340Z,46.20
2022-07-29T08:41:56.688Z,45.90
2022-07-29T08:44:44.952Z,46.00
2022-07-29T08:47:32.765Z,45.80
2022-07-29T08:50:20.115Z,45.90
2022-07-29T08:53:09.841Z,46.00
2022-07-29T08:55:58.176Z,46.20
2022-07-29T08:58:48.737Z,46.00
2022-07-29T09:01:42.906Z,46.30
2022-07-29T09:04:36.740Z,46.50
2022-07-29T09:07:24.066Z,46.70
2022-07-29T09:10:13.047Z,46.90
2022-07-29T09:13:00.846Z,47.20
2022-07-29T09:15:48.474Z,47.00
2022-07-29T09:18:41.714Z,47.10
2022-07-29T09:22:03.345Z,47.10
2022-07-29T09:24:51.742Z,47.20
2022-07-29T09:27:40.808Z,47.00
2022-07-29T09:30:31.617Z,46.90
2022-07-29T09:33:19.032Z,47.10
2022-07-29T09:36:08.839Z,47.20
2022-07-29T09:39:00.468Z,47.60
2022-07-29T09:41:50.713Z,47.80
2022-07-29T09:44:49.578Z,47.60
2022-07-29T09:47:50.261Z,48.00
2022-07-29T09:50:40.031Z,47.90
2022-07-29T09:53:34.685Z,47.60
2022-07-29T09:56:21.710Z,48.00
2022-07-29T09:59:09.488Z,47.70
2022-07-29T10:01:59.120Z,47.60
2022-07-29T10:04:46.628Z,47.50
2022-07-29T10:07:50.605Z,47.50
2022-07-29T10:10:43.738Z,47.80
2022-07-29T10:13:31.212Z,47.50
2022-07-29T10:16:19.169Z,47.70
2022-07-29T10:19:08.043Z,47.70
2022-07-29T10:21:58.118Z,47.40
2022-07-29T10:24:46.100Z,47.30
2022-07-29T10:27:33.279Z,47.70
2022-07-29T10:30:22.911Z,47.70
2022-07-29T10:33:38.727Z,47.80
2022-07-29T10:36:49.538Z,47.70
2022-07-29T10:39:59.270Z,47.40
2022-07-29T10:42:47.873Z,47.70
2022-07-29T10:45:35.306Z,48.00
2022-07-29T10:48:24.783Z,47.90
2022-07-29T10:51:12.761Z,48.00
2022-07-29T10:54:05.973Z,47.80
2022-07-29T10:56:54.841Z,47.50
2022-07-29T10:59:42.910Z,47.60
2022-07-29T11:02:54.414Z,47.10
2022-07-29T11:06:00.196Z,47.20
2022-07-29T11:08:47.819Z,46.90
2022-07-29T11:11:44.183Z,46.90
2022-07-29T11:15:01.589Z,46.70
2022-07-29T11:18:15.097Z,47.00
2022-07-29T11:21:04.966Z,47.10
2022-07-29T11:24:14.853Z,46.80
2022-07-29T11:27:20.748Z,46.80
2022-07-29T11:30:10.431Z,46.60
2022-07-29T11:32:57.599Z,46.60
2022-07-29T11:35:44.791Z,46.60
2022-07-29T11:38:48.028Z,46.70
2022-07-29T11:41:38.215Z,46.80
2022-07-29T11:44:57.275Z,46.20
2022-07-29T11:47:53.425Z,46.30
2022-07-29T11:50:44.545Z,46.90
2022-07-29T11:53:33.069Z,47.10
2022-07-29T11:56:25.710Z,46.60
2022-07-29T11:59:15.307Z,46.60
2022-07-29T12:02:36.723Z,46.50
2022-07-29T12:05:14.488Z,46.90
2022-07-29T12:08:15.027Z,46.40
2022-07-29T12:11:03.264Z,46.50
2022-07-29T12:13:51.390Z,46.50
2022-07-29T12:16:39.291Z,46.70
2022-07-29T12:19:29.716Z,46.80
2022-07-29T12:22:28.266Z,46.80
2022-07-29T12:25:33.153Z,46.70
2022-07-29T12:28:27.079Z,46.40
2022-07-29T12:31:42.386Z,46.50
2022-07-29T12:34:26.584Z,46.50
2022-07-29T12:37:15.008Z,46.50
2022-07-29T12:40:02.861Z,46.60
2022-07-29T12:43:10.264Z,46.70
2022-07-29T12:45:59.463Z,46.50
2022-07-29T12:48:47.374Z,46.40
2022-07-29T12:51:37.501Z,46.50
2022-07-29T12:54:26.114Z,46.50
2022-07-29T12:57:20.082Z,46.40
2022-07-29T13:00:12.180Z,46.50
2022-07-29T13:03:01.889Z,46.50
2022-07-29T13:05:49.733Z,46.40
2022-07-29T13:08:37.392Z,46.50
2022-07-29T13:11:34.236Z,46.30
2022-07-29T13:14:34.601Z,46.30
2022-07-29T13:17:24.183Z,46.10
2022-07-29T13:20:15.179Z,45.80
2022-07-29T13:23:03.653Z,45.60
2022-07-29T13:25:51.029Z,45.70
2022-07-29T13:28:40.934Z,45.70
2022-07-29T13:31:31.580Z,45.80
2022-07-29T13:34:20.519Z,45.50
2022-07-29T13:37:07.977Z,45.60
2022-07-29T13:39:55.350Z,45.60
2022-07-29T13:42:43.605Z,45.60
2022-07-29T13:45:31.992Z,45.60
2022-07-29T13:48:19.448Z,45.60
2022-07-29T13:51:06.427Z,45.50
2022-07-29T13:53:53.878Z,45.50
2022-07-29T13:56:40.913Z,45.50
2022-07-29T13:59:28.034Z,45.50
2022-07-29T14:02:16.729Z,45.50
2022-07-29T14:05:08.247Z,45.40
2022-07-29T14:07:55.943Z,45.50
2022-07-29T14:10:43.428Z,45.60
2022-07-29T14:13:30.867Z,45.50
2022-07-29T14:16:19.740Z,45.20
2022-07-29T14:19:08.400Z,45.10
2022-07-29T14:21:56.000Z,44.80
2022-07-29T14:24:45.536Z,44.80
2022-07-29T14:27:37.317Z,44.60
2022-07-29T14:30:25.858Z,44.50
2022-07-29T14:33:13.125Z,44.40
2022-07-29T14:36:02.018Z,44.50
2022-07-29T14:38:49.165Z,44.10
2022-07-29T14:41:36.345Z,44.30
2022-07-29T14:44:23.601Z,44.40
2022-07-29T14:47:11.300Z,44.20
2022-07-29T14:49:58.647Z,44.20
2022-07-29T14:52:47.703Z,44.20
2022-07-29T14:55:36.673Z,43.90
2022-07-29T14:58:24.067Z,43.90
2022-07-29T15:01:11.405Z,43.90
2022-07-29T15:03:59.892Z,43.80
2022-07-29T15:06:47.106Z,43.80
2022-07-29T15:09:40.245Z,43.60
2022-07-29T15:12:37.247Z,43.20
2022-07-29T15:15:24.832Z,43.30
2022-07-29T15:18:12.067Z,43.10
2022-07-29T15:21:01.451Z,43.40
2022-07-29T15:23:48.989Z,43.10
2022-07-29T15:26:37.559Z,43.10
2022-07-29T15:29:25.103Z,43.20
2022-07-29T15:32:13.298Z,43.20
2022-07-29T15:35:00.601Z,43.20
2022-07-29T15:37:49.113Z,43.30
2022-07-29T15:40:38.446Z,43.30
2022-07-29T15:43:27.065Z,43.20
2022-07-29T15:46:33.887Z,43.30
2022-07-29T15:49:22.702Z,43.30
2022-07-29T15:52:11.744Z,43.30
2022-07-29T15:55:00.293Z,43.30
2022-07-29T15:57:47.470Z,43.20
2022-07-29T16:00:36.250Z,43.30
2022-07-29T16:03:24.770Z,43.20
2022-07-29T16:06:12.352Z,43.20
2022-07-29T16:09:00.553Z,43.20
2022-07-29T16:11:50.867Z,43.40
2022-07-29T16:14:38.265Z,43.60
2022-07-29T16:17:27.752Z,43.80
2022-07-29T16:20:15.376Z,44.10
2022-07-29T16:23:02.786Z,44.70
2022-07-29T16:25:59.718Z,45.00
2022-07-29T16:28:47.727Z,45.40
2022-07-29T16:31:36.201Z,45.70
2022-07-29T16:34:25.071Z,46.10
2022-07-29T16:37:12.506Z,46.10
2022-07-29T16:39:59.741Z,46.10
2022-07-29T16:42:47.578Z,46.20
2022-07-29T16:45:45.081Z,46.60
2022-07-29T16:48:34.057Z,47.00
2022-07-29T16:51:24.382Z,47.90
2022-07-29T16:54:11.924Z,48.30
2022-07-29T16:57:02.007Z,48.20
2022-07-29T16:59:51.020Z,48.60
2022-07-29T17:02:38.831Z,48.80
2022-07-29T17:05:26.338Z,48.90
2022-07-29T17:08:15.032Z,49.40
2022-07-29T17:11:02.249Z,49.80
2022-07-29T17:13:49.458Z,50.10
2022-07-29T17:16:37.264Z,50.40
2022-07-29T17:19:24.576Z,50.70
2022-07-29T17:22:18.759Z,51.00
2022-07-29T17:25:10.060Z,51.30
2022-07-29T17:28:00.932Z,52.10
2022-07-29T17:30:48.432Z,52.00
2022-07-29T17:33:36.089Z,52.00
2022-07-29T17:36:26.953Z,52.10
2022-07-29T17:39:14.114Z,51.90
2022-07-29T17:42:03.053Z,51.80
2022-07-29T17:44:50.381Z,52.20
2022-07-29T17:47:38.486Z,52.20
2022-07-29T17:50:25.938Z,52.70
2022-07-29T17:53:16.192Z,52.60
2022-07-29T17:56:04.187Z,52.80
2022-07-29T17:58:54.192Z,52.80
2022-07-29T18:01:41.898Z,53.00
2022-07-29T18:04:31.002Z,53.00
2022-07-29T18:07:18.583Z,52.70
2022-07-29T18:10:07.239Z,52.70
2022-07-29T18:12:54.787Z,52.70
2022-07-29T18:15:45.164Z,52.90
2022-07-29T18:18:32.493Z,53.40
2022-07-29T18:21:37.402Z,53.20
2022-07-29T18:24:29.119Z,53.20
2022-07-29T18:27:16.379Z,53.20
2022-07-29T18:30:04.820Z,53.10
2022-07-29T18:33:19.137Z,53.20
2022-07-29T18:36:09.992Z,53.40
2022-07-29T18:38:58.712Z,53.30
2022-07-29T18:41:46.165Z,53.50
2022-07-29T18:44:43.761Z,53.60
2022-07-29T18:47:36.992Z,53.70
2022-07-29T18:50:30.219Z,53.60
2022-07-29T18:53:17.340Z,53.80
2022-07-29T18:56:04.773Z,53.70
2022-07-29T18:58:52.219Z,53.70
2022-07-29T19:01:39.316Z,53.70
2022-07-29T19:04:27.123Z,53.60
2022-07-29T19:07:17.373Z,53.50
2022-07-29T19:10:05.743Z,53.60
2022-07-29T19:12:53.021Z,53.30
2022-07-29T19:15:40.437Z,53.60
2022-07-29T19:18:27.803Z,53.50
2022-07-29T19:21:15.514Z,53.60
2022-07-29T19:24:11.053Z,53.40
2022-07-29T19:27:01.162Z,53.50
2022-07-29T19:29:48.657Z,53.40
2022-07-29T19:32:35.821Z,53.50
2022-07-29T19:35:28.334Z,53.70
2022-07-29T19:38:16.080Z,53.70
2022-07-29T19:41:06.220Z,53.60
2022-07-29T19:43:53.623Z,53.80
2022-07-29T19:46:41.190Z,53.60
2022-07-29T19:49:28.390Z,53.70
2022-07-29T19:52:16.223Z,53.60
2022-07-29T19:55:07.519Z,53.80
2022-07-29T19:57:58.684Z,54.00
2022-07-29T20:00:47.321Z,54.20
2022-07-29T20:03:34.928Z,54.10
2022-07-29T20:06:23.087Z,54.10
2022-07-29T20:09:17.000Z,54.00
2022-07-29T20:12:09.493Z,54.00
2022-07-29T20:14:58.357Z,54.10
2022-07-29T20:17:45.848Z,54.10
2022-07-29T20:20:33.136Z,54.00
2022-07-29T20:23:22.309Z,53.90
2022-07-29T20:26:10.105Z,54.20
2022-07-29T20:28:57.292Z,54.20
2022-07-29T20:31:45.772Z,54.20
2022-07-29T20:34:41.338Z,54.40
2022-07-29T20:37:28.706Z,54.20
2022-07-29T20:40:16.885Z,54.20
2022-07-29T20:43:04.093Z,54.10
2022-07-29T20:45:51.297Z,54.10
2022-07-29T20:48:40.880Z,54.30
2022-07-29T20:51:28.322Z,54.60
2022-07-29T20:54:15.602Z,54.50
2022-07-29T20:57:02.997Z,54.60
2022-07-29T20:59:50.527Z,54.80
2022-07-29T21:02:37.965Z,54.90
2022-07-29T21:05:26.694Z,54.90
2022-07-29T21:08:13.861Z,55.10
2022-07-29T21:11:01.139Z,54.90
2022-07-29T21:13:48.699Z,54.90
2022-07-29T21:16:35.903Z,54.90
2022-07-29T21:19:23.174Z,55.00
2022-07-29T21:22:12.615Z,54.90
2022-07-29T21:24:59.836Z,54.90
2022-07-29T21:28:04.208Z,54.90
2022-07-29T21:30:51.262Z,54.90
2022-07-29T21:33:39.834Z,54.80
2022-07-29T21:39:35.775Z,54.90
2022-07-29T21:42:23.200Z,54.90
2022-07-29T21:45:13.361Z,54.80
2022-07-29T21:48:00.499Z,54.70
2022-07-29T21:50:48.975Z,54.70
2022-07-29T21:53:36.385Z,54.80
2022-07-29T21:56:27.560Z,54.80
2022-07-29T21:59:15.373Z,54.80
2022-07-29T22:02:02.560Z,54.60
2022-07-29T22:04:50.689Z,54.50
2022-07-29T22:07:55.924Z,54.60
2022-07-29T22:10:44.098Z,54.90
2022-07-29T22:13:32.915Z,55.00
2022-07-29T22:16:24.352Z,55.90
2022-07-29T22:19:11.370Z,55.20
2022-07-29T22:21:58.633Z,55.40
2022-07-29T22:24:45.654Z,55.50
2022-07-29T22:27:33.091Z,55.50
2022-07-29T22:30:21.732Z,55.40
2022-07-29T22:33:09.295Z,55.30
2022-07-29T22:36:04.089Z,55.30
2022-07-29T22:38:52.148Z,55.30
2022-07-29T22:41:39.561Z,55.40
2022-07-29T22:44:26.781Z,55.40
2022-07-29T22:47:15.667Z,55.30
2022-07-29T22:50:02.797Z,55.30
2022-07-29T22:52:49.932Z,55.20
2022-07-29T22:55:37.091Z,55.20
2022-07-29T22:58:24.524Z,55.20
2022-07-29T23:01:11.938Z,55.30
2022-07-29T23:04:00.930Z,55.30
2022-07-29T23:06:48.335Z,55.40
2022-07-29T23:09:35.596Z,55.20
2022-07-29T23:12:23.019Z,55.20
2022-07-29T23:15:10.696Z,55.10
2022-07-29T23:17:58.799Z,55.10
2022-07-29T23:20:47.298Z,55.10
2022-07-29T23:23:34.572Z,55.00
2022-07-29T23:26:21.933Z,55.00
2022-07-29T23:29:09.349Z,55.10
2022-07-29T23:31:56.457Z,55.00
2022-07-29T23:34:43.747Z,55.10
2022-07-29T23:37:32.331Z,55.10
2022-07-29T23:40:20.107Z,55.10
2022-07-29T23:43:08.601Z,55.00
2022-07-29T23:45:57.285Z,55.20
2022-07-29T23:48:45.501Z,55.30
2022-07-29T23:51:32.795Z,55.40
2022-07-29T23:54:21.158Z,55.50
2022-07-29T23:57:08.528Z,55.40
2022-07-29T23:59:56.277Z,55.20
